sensor_id;sensor_type;location;lat;lon;timestamp;P1;durP1;ratioP1;P2;durP2;ratioP2
22894;SDS011;11614;52.494;6.976;2022-08-19T00:01:10;20.63;;;15.60;;
22894;SDS011;11614;52.494;6.976;2022-08-19T00:03:36;24.20;;;15.77;;
22894;SDS011;11614;52.494;6.976;2022-08-19T00:06:02;22.37;;;16.03;;
22894;SDS011;11614;52.494;6.976;2022-08-19T00:08:28;25.23;;;15.80;;
22894;SDS011;11614;52.494;6.976;2022-08-19T00:10:54;22.93;;;16.33;;
22894;SDS011;11614;52.494;6.976;2022-08-19T00:13:20;24.53;;;18.03;;
22894;SDS011;11614;52.494;6.976;2022-08-19T00:15:46;24.63;;;18.17;;
22894;SDS011;11614;52.494;6.976;2022-08-19T00:18:12;23.97;;;17.33;;
22894;SDS011;11614;52.494;6.976;2022-08-19T00:20:38;21.33;;;16.10;;
22894;SDS011;11614;52.494;6.976;2022-08-19T00:23:05;29.43;;;19.47;;
22894;SDS011;11614;52.494;6.976;2022-08-19T00:25:31;29.23;;;19.33;;
22894;SDS011;11614;52.494;6.976;2022-08-19T00:27:57;24.83;;;18.53;;
22894;SDS011;11614;52.494;6.976;2022-08-19T00:30:24;26.30;;;18.67;;
22894;SDS011;11614;52.494;6.976;2022-08-19T00:32:52;24.87;;;17.53;;
22894;SDS011;11614;52.494;6.976;2022-08-19T00:35:20;27.40;;;19.80;;
22894;SDS011;11614;52.494;6.976;2022-08-19T00:37:47;29.70;;;21.20;;
22894;SDS011;11614;52.494;6.976;2022-08-19T00:40:14;30.67;;;20.87;;
22894;SDS011;11614;52.494;6.976;2022-08-19T00:42:40;29.97;;;21.30;;
22894;SDS011;11614;52.494;6.976;2022-08-19T00:45:11;26.73;;;19.43;;
22894;SDS011;11614;52.494;6.976;2022-08-19T00:47:37;24.80;;;18.40;;
22894;SDS011;11614;52.494;6.976;2022-08-19T00:50:03;28.20;;;18.97;;
22894;SDS011;11614;52.494;6.976;2022-08-19T00:52:32;28.40;;;20.40;;
22894;SDS011;11614;52.494;6.976;2022-08-19T00:54:59;27.50;;;18.07;;
22894;SDS011;11614;52.494;6.976;2022-08-19T00:57:27;26.70;;;19.23;;
22894;SDS011;11614;52.494;6.976;2022-08-19T00:59:54;26.20;;;19.37;;
22894;SDS011;11614;52.494;6.976;2022-08-19T01:02:21;25.13;;;18.27;;
22894;SDS011;11614;52.494;6.976;2022-08-19T01:04:47;29.43;;;19.40;;
22894;SDS011;11614;52.494;6.976;2022-08-19T01:07:13;25.17;;;18.20;;
22894;SDS011;11614;52.494;6.976;2022-08-19T01:09:39;24.80;;;18.07;;
22894;SDS011;11614;52.494;6.976;2022-08-19T01:12:04;24.47;;;18.10;;
22894;SDS011;11614;52.494;6.976;2022-08-19T01:14:30;22.80;;;16.10;;
22894;SDS011;11614;52.494;6.976;2022-08-19T01:16:56;25.27;;;18.17;;
22894;SDS011;11614;52.494;6.976;2022-08-19T01:19:27;21.73;;;17.03;;
22894;SDS011;11614;52.494;6.976;2022-08-19T01:22:08;25.50;;;18.13;;
22894;SDS011;11614;52.494;6.976;2022-08-19T01:24:44;25.83;;;18.90;;
22894;SDS011;11614;52.494;6.976;2022-08-19T01:27:10;25.47;;;19.17;;
22894;SDS011;11614;52.494;6.976;2022-08-19T01:29:36;31.07;;;20.93;;
22894;SDS011;11614;52.494;6.976;2022-08-19T01:32:04;28.90;;;20.80;;
22894;SDS011;11614;52.494;6.976;2022-08-19T01:34:30;31.43;;;21.67;;
22894;SDS011;11614;52.494;6.976;2022-08-19T01:36:59;30.23;;;21.47;;
22894;SDS011;11614;52.494;6.976;2022-08-19T01:39:26;29.53;;;21.07;;
22894;SDS011;11614;52.494;6.976;2022-08-19T01:41:53;27.70;;;19.50;;
22894;SDS011;11614;52.494;6.976;2022-08-19T01:44:20;26.00;;;17.60;;
22894;SDS011;11614;52.494;6.976;2022-08-19T01:46:48;26.13;;;18.20;;
22894;SDS011;11614;52.494;6.976;2022-08-19T01:49:15;24.33;;;17.80;;
22894;SDS011;11614;52.494;6.976;2022-08-19T01:51:42;24.83;;;17.03;;
22894;SDS011;11614;52.494;6.976;2022-08-19T01:54:09;25.00;;;18.43;;
22894;SDS011;11614;52.494;6.976;2022-08-19T01:56:36;27.80;;;19.43;;
22894;SDS011;11614;52.494;6.976;2022-08-19T01:59:05;29.43;;;19.37;;
22894;SDS011;11614;52.494;6.976;2022-08-19T02:01:35;27.53;;;20.47;;
22894;SDS011;11614;52.494;6.976;2022-08-19T02:04:00;31.03;;;20.50;;
22894;SDS011;11614;52.494;6.976;2022-08-19T02:06:26;36.33;;;23.00;;
22894;SDS011;11614;52.494;6.976;2022-08-19T02:08:53;27.80;;;19.80;;
22894;SDS011;11614;52.494;6.976;2022-08-19T02:11:20;31.87;;;20.57;;
22894;SDS011;11614;52.494;6.976;2022-08-19T02:13:59;30.90;;;19.83;;
22894;SDS011;11614;52.494;6.976;2022-08-19T02:16:27;30.17;;;20.70;;
22894;SDS011;11614;52.494;6.976;2022-08-19T02:18:52;28.20;;;20.47;;
22894;SDS011;11614;52.494;6.976;2022-08-19T02:21:20;29.53;;;19.97;;
22894;SDS011;11614;52.494;6.976;2022-08-19T02:23:47;30.60;;;19.13;;
22894;SDS011;11614;52.494;6.976;2022-08-19T02:26:14;23.57;;;16.60;;
22894;SDS011;11614;52.494;6.976;2022-08-19T02:28:40;27.87;;;19.20;;
22894;SDS011;11614;52.494;6.976;2022-08-19T02:31:11;29.83;;;20.33;;
22894;SDS011;11614;52.494;6.976;2022-08-19T02:33:39;28.07;;;19.20;;
22894;SDS011;11614;52.494;6.976;2022-08-19T02:36:06;28.60;;;19.13;;
22894;SDS011;11614;52.494;6.976;2022-08-19T02:38:33;27.93;;;19.53;;
22894;SDS011;11614;52.494;6.976;2022-08-19T02:41:00;27.27;;;18.37;;
22894;SDS011;11614;52.494;6.976;2022-08-19T02:43:29;27.37;;;19.10;;
22894;SDS011;11614;52.494;6.976;2022-08-19T02:45:55;28.07;;;20.23;;
22894;SDS011;11614;52.494;6.976;2022-08-19T02:48:22;29.43;;;19.30;;
22894;SDS011;11614;52.494;6.976;2022-08-19T02:50:50;30.83;;;18.87;;
22894;SDS011;11614;52.494;6.976;2022-08-19T02:53:21;30.93;;;21.10;;
22894;SDS011;11614;52.494;6.976;2022-08-19T02:55:48;25.77;;;19.03;;
22894;SDS011;11614;52.494;6.976;2022-08-19T02:58:14;31.43;;;19.87;;
22894;SDS011;11614;52.494;6.976;2022-08-19T03:00:41;28.07;;;19.67;;
22894;SDS011;11614;52.494;6.976;2022-08-19T03:03:08;30.40;;;22.10;;
22894;SDS011;11614;52.494;6.976;2022-08-19T03:05:34;27.43;;;19.53;;
22894;SDS011;11614;52.494;6.976;2022-08-19T03:08:00;31.33;;;20.70;;
22894;SDS011;11614;52.494;6.976;2022-08-19T03:10:25;26.87;;;18.00;;
22894;SDS011;11614;52.494;6.976;2022-08-19T03:12:51;28.73;;;18.10;;
22894;SDS011;11614;52.494;6.976;2022-08-19T03:15:17;25.10;;;17.17;;
22894;SDS011;11614;52.494;6.976;2022-08-19T03:17:42;29.57;;;20.10;;
22894;SDS011;11614;52.494;6.976;2022-08-19T03:20:08;27.10;;;18.50;;
22894;SDS011;11614;52.494;6.976;2022-08-19T03:22:34;27.37;;;18.87;;
22894;SDS011;11614;52.494;6.976;2022-08-19T03:25:00;28.40;;;18.67;;
22894;SDS011;11614;52.494;6.976;2022-08-19T03:27:26;25.23;;;17.23;;
22894;SDS011;11614;52.494;6.976;2022-08-19T03:29:52;23.87;;;15.90;;
22894;SDS011;11614;52.494;6.976;2022-08-19T03:32:17;23.93;;;15.00;;
22894;SDS011;11614;52.494;6.976;2022-08-19T03:34:43;22.53;;;14.17;;
22894;SDS011;11614;52.494;6.976;2022-08-19T03:37:10;36.00;;;20.37;;
22894;SDS011;11614;52.494;6.976;2022-08-19T03:39:39;29.27;;;20.43;;
22894;SDS011;11614;52.494;6.976;2022-08-19T03:42:07;29.40;;;19.57;;
22894;SDS011;11614;52.494;6.976;2022-08-19T03:44:33;30.57;;;21.17;;
22894;SDS011;11614;52.494;6.976;2022-08-19T03:47:01;28.90;;;19.80;;
22894;SDS011;11614;52.494;6.976;2022-08-19T03:49:28;28.53;;;19.83;;
22894;SDS011;11614;52.494;6.976;2022-08-19T03:51:56;26.43;;;20.33;;
22894;SDS011;11614;52.494;6.976;2022-08-19T03:54:25;30.03;;;20.17;;
22894;SDS011;11614;52.494;6.976;2022-08-19T03:56:51;31.17;;;19.33;;
22894;SDS011;11614;52.494;6.976;2022-08-19T03:59:23;28.27;;;18.77;;
22894;SDS011;11614;52.494;6.976;2022-08-19T04:01:52;26.77;;;18.70;;
22894;SDS011;11614;52.494;6.976;2022-08-19T04:04:19;25.07;;;16.73;;
22894;SDS011;11614;52.494;6.976;2022-08-19T04:06:45;28.00;;;18.07;;
22894;SDS011;11614;52.494;6.976;2022-08-19T04:09:12;27.13;;;17.57;;
22894;SDS011;11614;52.494;6.976;2022-08-19T04:11:39;30.97;;;18.50;;
22894;SDS011;11614;52.494;6.976;2022-08-19T04:14:07;30.77;;;21.60;;
22894;SDS011;11614;52.494;6.976;2022-08-19T04:16:33;30.73;;;20.80;;
22894;SDS011;11614;52.494;6.976;2022-08-19T04:19:00;31.63;;;20.87;;
22894;SDS011;11614;52.494;6.976;2022-08-19T04:21:27;27.37;;;19.30;;
22894;SDS011;11614;52.494;6.976;2022-08-19T04:23:53;31.67;;;21.03;;
22894;SDS011;11614;52.494;6.976;2022-08-19T04:26:21;31.17;;;19.87;;
22894;SDS011;11614;52.494;6.976;2022-08-19T04:28:49;35.67;;;22.10;;
22894;SDS011;11614;52.494;6.976;2022-08-19T04:31:18;32.33;;;20.00;;
22894;SDS011;11614;52.494;6.976;2022-08-19T04:33:45;30.57;;;20.77;;
22894;SDS011;11614;52.494;6.976;2022-08-19T04:36:18;29.13;;;19.30;;
22894;SDS011;11614;52.494;6.976;2022-08-19T04:38:47;26.10;;;18.00;;
22894;SDS011;11614;52.494;6.976;2022-08-19T04:41:13;29.77;;;20.27;;
22894;SDS011;11614;52.494;6.976;2022-08-19T04:43:58;27.63;;;18.87;;
22894;SDS011;11614;52.494;6.976;2022-08-19T04:46:24;29.17;;;18.37;;
22894;SDS011;11614;52.494;6.976;2022-08-19T04:48:50;26.47;;;18.70;;
22894;SDS011;11614;52.494;6.976;2022-08-19T04:51:17;25.33;;;17.57;;
22894;SDS011;11614;52.494;6.976;2022-08-19T04:53:43;28.90;;;19.17;;
22894;SDS011;11614;52.494;6.976;2022-08-19T04:56:11;35.07;;;21.67;;
22894;SDS011;11614;52.494;6.976;2022-08-19T04:58:41;33.07;;;21.67;;
22894;SDS011;11614;52.494;6.976;2022-08-19T05:01:09;37.20;;;22.97;;
22894;SDS011;11614;52.494;6.976;2022-08-19T05:03:38;38.43;;;25.00;;
22894;SDS011;11614;52.494;6.976;2022-08-19T05:06:08;32.07;;;20.77;;
22894;SDS011;11614;52.494;6.976;2022-08-19T05:08:39;30.07;;;20.67;;
22894;SDS011;11614;52.494;6.976;2022-08-19T05:11:12;33.37;;;22.07;;
22894;SDS011;11614;52.494;6.976;2022-08-19T05:13:40;39.80;;;26.10;;
22894;SDS011;11614;52.494;6.976;2022-08-19T05:16:06;34.80;;;22.20;;
22894;SDS011;11614;52.494;6.976;2022-08-19T05:18:31;31.27;;;21.63;;
22894;SDS011;11614;52.494;6.976;2022-08-19T05:21:16;32.00;;;20.53;;
22894;SDS011;11614;52.494;6.976;2022-08-19T05:24:02;34.00;;;21.53;;
22894;SDS011;11614;52.494;6.976;2022-08-19T05:26:28;30.33;;;20.40;;
22894;SDS011;11614;52.494;6.976;2022-08-19T05:28:54;30.37;;;21.37;;
22894;SDS011;11614;52.494;6.976;2022-08-19T05:31:20;27.33;;;20.13;;
22894;SDS011;11614;52.494;6.976;2022-08-19T05:33:46;25.60;;;18.50;;
22894;SDS011;11614;52.494;6.976;2022-08-19T05:36:12;25.23;;;17.67;;
22894;SDS011;11614;52.494;6.976;2022-08-19T05:38:39;23.63;;;16.73;;
22894;SDS011;11614;52.494;6.976;2022-08-19T05:41:12;19.33;;;13.97;;
22894;SDS011;11614;52.494;6.976;2022-08-19T05:43:38;18.77;;;13.30;;
22894;SDS011;11614;52.494;6.976;2022-08-19T05:46:05;18.47;;;13.60;;
22894;SDS011;11614;52.494;6.976;2022-08-19T05:48:32;23.27;;;15.90;;
22894;SDS011;11614;52.494;6.976;2022-08-19T05:51:02;22.90;;;16.60;;
22894;SDS011;11614;52.494;6.976;2022-08-19T05:53:33;28.00;;;17.63;;
22894;SDS011;11614;52.494;6.976;2022-08-19T05:56:06;22.80;;;16.30;;
22894;SDS011;11614;52.494;6.976;2022-08-19T05:58:33;26.57;;;17.23;;
22894;SDS011;11614;52.494;6.976;2022-08-19T06:00:59;26.70;;;19.20;;
22894;SDS011;11614;52.494;6.976;2022-08-19T06:03:31;24.10;;;17.33;;
22894;SDS011;11614;52.494;6.976;2022-08-19T06:05:58;22.83;;;16.23;;
22894;SDS011;11614;52.494;6.976;2022-08-19T06:08:25;26.47;;;17.93;;
22894;SDS011;11614;52.494;6.976;2022-08-19T06:10:51;21.93;;;16.67;;
22894;SDS011;11614;52.494;6.976;2022-08-19T06:13:17;20.70;;;16.17;;
22894;SDS011;11614;52.494;6.976;2022-08-19T06:15:44;18.77;;;14.20;;
22894;SDS011;11614;52.494;6.976;2022-08-19T06:18:11;20.07;;;15.17;;
22894;SDS011;11614;52.494;6.976;2022-08-19T06:20:37;21.70;;;14.73;;
22894;SDS011;11614;52.494;6.976;2022-08-19T06:23:03;20.10;;;15.48;;
22894;SDS011;11614;52.494;6.976;2022-08-19T06:25:29;21.55;;;15.35;;
22894;SDS011;11614;52.494;6.976;2022-08-19T06:27:55;21.33;;;16.02;;
22894;SDS011;11614;52.494;6.976;2022-08-19T06:30:21;20.27;;;16.48;;
22894;SDS011;11614;52.494;6.976;2022-08-19T06:32:47;22.00;;;16.92;;
22894;SDS011;11614;52.494;6.976;2022-08-19T06:35:13;22.25;;;16.05;;
22894;SDS011;11614;52.494;6.976;2022-08-19T06:37:39;20.95;;;15.85;;
22894;SDS011;11614;52.494;6.976;2022-08-19T06:40:05;19.95;;;17.25;;
22894;SDS011;11614;52.494;6.976;2022-08-19T06:42:33;20.70;;;16.90;;
22894;SDS011;11614;52.494;6.976;2022-08-19T06:44:59;20.55;;;18.25;;
22894;SDS011;11614;52.494;6.976;2022-08-19T06:47:28;21.90;;;18.08;;
22894;SDS011;11614;52.494;6.976;2022-08-19T06:49:54;22.05;;;17.52;;
22894;SDS011;11614;52.494;6.976;2022-08-19T06:52:24;21.60;;;19.30;;
22894;SDS011;11614;52.494;6.976;2022-08-19T06:54:50;23.08;;;20.80;;
22894;SDS011;11614;52.494;6.976;2022-08-19T06:57:16;25.02;;;22.80;;
22894;SDS011;11614;52.494;6.976;2022-08-19T06:59:42;20.17;;;17.85;;
22894;SDS011;11614;52.494;6.976;2022-08-19T07:02:08;21.65;;;19.45;;
22894;SDS011;11614;52.494;6.976;2022-08-19T07:04:35;19.40;;;17.23;;
22894;SDS011;11614;52.494;6.976;2022-08-19T07:07:04;21.90;;;19.10;;
22894;SDS011;11614;52.494;6.976;2022-08-19T07:09:32;20.05;;;17.95;;
22894;SDS011;11614;52.494;6.976;2022-08-19T07:11:58;20.83;;;18.83;;
22894;SDS011;11614;52.494;6.976;2022-08-19T07:14:26;23.67;;;21.20;;
22894;SDS011;11614;52.494;6.976;2022-08-19T07:16:53;26.52;;;23.92;;
22894;SDS011;11614;52.494;6.976;2022-08-19T07:19:20;37.22;;;34.58;;
22894;SDS011;11614;52.494;6.976;2022-08-19T07:21:50;38.78;;;35.90;;
22894;SDS011;11614;52.494;6.976;2022-08-19T07:24:19;33.55;;;31.30;;
22894;SDS011;11614;52.494;6.976;2022-08-19T07:26:45;50.83;;;47.53;;
22894;SDS011;11614;52.494;6.976;2022-08-19T07:29:12;50.20;;;46.88;;
22894;SDS011;11614;52.494;6.976;2022-08-19T07:31:39;36.97;;;34.22;;
22894;SDS011;11614;52.494;6.976;2022-08-19T07:34:05;51.08;;;47.45;;
22894;SDS011;11614;52.494;6.976;2022-08-19T07:36:33;67.68;;;63.70;;
22894;SDS011;11614;52.494;6.976;2022-08-19T07:39:00;55.00;;;51.13;;
22894;SDS011;11614;52.494;6.976;2022-08-19T07:41:27;52.92;;;49.42;;
22894;SDS011;11614;52.494;6.976;2022-08-19T07:43:56;49.55;;;46.03;;
22894;SDS011;11614;52.494;6.976;2022-08-19T07:46:23;38.38;;;35.67;;
22894;SDS011;11614;52.494;6.976;2022-08-19T07:48:49;93.90;;;89.10;;
22894;SDS011;11614;52.494;6.976;2022-08-19T07:51:16;69.85;;;66.00;;
22894;SDS011;11614;52.494;6.976;2022-08-19T07:53:43;123.45;;;117.53;;
22894;SDS011;11614;52.494;6.976;2022-08-19T07:56:10;89.45;;;85.07;;
22894;SDS011;11614;52.494;6.976;2022-08-19T07:58:38;59.88;;;56.60;;
22894;SDS011;11614;52.494;6.976;2022-08-19T08:01:04;60.63;;;57.28;;
22894;SDS011;11614;52.494;6.976;2022-08-19T08:03:31;180.35;;;172.55;;
22894;SDS011;11614;52.494;6.976;2022-08-19T08:06:15;89.28;;;85.32;;
22894;SDS011;11614;52.494;6.976;2022-08-19T08:09:01;103.68;;;98.95;;
22894;SDS011;11614;52.494;6.976;2022-08-19T08:11:44;72.20;;;68.53;;
22894;SDS011;11614;52.494;6.976;2022-08-19T08:14:15;112.93;;;108.05;;
22894;SDS011;11614;52.494;6.976;2022-08-19T08:16:41;119.50;;;114.10;;
22894;SDS011;11614;52.494;6.976;2022-08-19T08:19:08;65.32;;;62.03;;
22894;SDS011;11614;52.494;6.976;2022-08-19T08:21:35;58.17;;;55.10;;
22894;SDS011;11614;52.494;6.976;2022-08-19T08:24:01;85.00;;;81.28;;
22894;SDS011;11614;52.494;6.976;2022-08-19T08:26:27;102.75;;;98.38;;
22894;SDS011;11614;52.494;6.976;2022-08-19T08:28:53;107.80;;;102.68;;
22894;SDS011;11614;52.494;6.976;2022-08-19T08:31:19;65.80;;;62.55;;
22894;SDS011;11614;52.494;6.976;2022-08-19T08:33:46;43.17;;;40.58;;
22894;SDS011;11614;52.494;6.976;2022-08-19T08:36:12;76.68;;;73.22;;
22894;SDS011;11614;52.494;6.976;2022-08-19T08:38:40;128.23;;;122.65;;
22894;SDS011;11614;52.494;6.976;2022-08-19T08:43:44;107.57;;;102.72;;
22894;SDS011;11614;52.494;6.976;2022-08-19T08:51:35;22.95;;;21.17;;
22894;SDS011;11614;52.494;6.976;2022-08-19T08:54:04;25.83;;;23.92;;
22894;SDS011;11614;52.494;6.976;2022-08-19T08:56:31;22.35;;;20.73;;
22894;SDS011;11614;52.494;6.976;2022-08-19T09:01:23;20.73;;;18.92;;
22894;SDS011;11614;52.494;6.976;2022-08-19T09:03:50;18.10;;;16.70;;
22894;SDS011;11614;52.494;6.976;2022-08-19T09:08:45;20.90;;;19.50;;
22894;SDS011;11614;52.494;6.976;2022-08-19T09:11:15;29.10;;;27.20;;
22894;SDS011;11614;52.494;6.976;2022-08-19T09:13:52;19.85;;;18.45;;
22894;SDS011;11614;52.494;6.976;2022-08-19T09:16:22;22.35;;;20.63;;
22894;SDS011;11614;52.494;6.976;2022-08-19T09:18:52;17.05;;;15.52;;
22894;SDS011;11614;52.494;6.976;2022-08-19T09:21:19;27.23;;;25.42;;
22894;SDS011;11614;52.494;6.976;2022-08-19T09:23:46;18.45;;;17.00;;
22894;SDS011;11614;52.494;6.976;2022-08-19T09:26:13;15.23;;;13.90;;
22894;SDS011;11614;52.494;6.976;2022-08-19T09:28:40;33.58;;;31.27;;
22894;SDS011;11614;52.494;6.976;2022-08-19T09:31:11;16.75;;;15.45;;
22894;SDS011;11614;52.494;6.976;2022-08-19T09:33:38;20.92;;;19.23;;
22894;SDS011;11614;52.494;6.976;2022-08-19T09:36:07;16.65;;;15.18;;
22894;SDS011;11614;52.494;6.976;2022-08-19T09:38:34;15.40;;;13.95;;
22894;SDS011;11614;52.494;6.976;2022-08-19T09:41:04;19.10;;;17.70;;
22894;SDS011;11614;52.494;6.976;2022-08-19T09:43:31;17.10;;;15.73;;
22894;SDS011;11614;52.494;6.976;2022-08-19T09:45:58;17.75;;;16.35;;
22894;SDS011;11614;52.494;6.976;2022-08-19T09:48:25;14.27;;;13.00;;
22894;SDS011;11614;52.494;6.976;2022-08-19T09:50:51;17.58;;;16.17;;
22894;SDS011;11614;52.494;6.976;2022-08-19T09:53:17;18.58;;;17.27;;
22894;SDS011;11614;52.494;6.976;2022-08-19T09:55:43;15.93;;;14.65;;
22894;SDS011;11614;52.494;6.976;2022-08-19T09:58:09;19.10;;;17.73;;
22894;SDS011;11614;52.494;6.976;2022-08-19T10:00:36;18.50;;;17.15;;
22894;SDS011;11614;52.494;6.976;2022-08-19T10:03:03;29.08;;;27.42;;
22894;SDS011;11614;52.494;6.976;2022-08-19T10:05:29;16.90;;;15.38;;
22894;SDS011;11614;52.494;6.976;2022-08-19T10:08:13;20.60;;;18.90;;
22894;SDS011;11614;52.494;6.976;2022-08-19T10:10:40;15.23;;;14.23;;
22894;SDS011;11614;52.494;6.976;2022-08-19T10:13:10;33.58;;;31.67;;
22894;SDS011;11614;52.494;6.976;2022-08-19T10:15:36;17.35;;;16.05;;
22894;SDS011;11614;52.494;6.976;2022-08-19T10:18:04;19.48;;;18.00;;
22894;SDS011;11614;52.494;6.976;2022-08-19T10:20:31;26.75;;;25.05;;
22894;SDS011;11614;52.494;6.976;2022-08-19T10:22:57;22.75;;;20.75;;
22894;SDS011;11614;52.494;6.976;2022-08-19T10:25:26;16.73;;;15.50;;
22894;SDS011;11614;52.494;6.976;2022-08-19T10:27:52;19.73;;;18.48;;
22894;SDS011;11614;52.494;6.976;2022-08-19T10:30:18;23.80;;;22.27;;
22894;SDS011;11614;52.494;6.976;2022-08-19T10:32:44;19.70;;;18.02;;
22894;SDS011;11614;52.494;6.976;2022-08-19T10:35:11;22.08;;;20.52;;
22894;SDS011;11614;52.494;6.976;2022-08-19T10:37:37;27.02;;;25.40;;
22894;SDS011;11614;52.494;6.976;2022-08-19T10:40:05;23.02;;;21.17;;
22894;SDS011;11614;52.494;6.976;2022-08-19T10:42:32;25.23;;;23.27;;
22894;SDS011;11614;52.494;6.976;2022-08-19T10:44:58;18.20;;;16.70;;
22894;SDS011;11614;52.494;6.976;2022-08-19T10:47:24;13.30;;;12.30;;
22894;SDS011;11614;52.494;6.976;2022-08-19T10:49:51;18.20;;;16.92;;
22894;SDS011;11614;52.494;6.976;2022-08-19T10:52:35;14.65;;;13.63;;
22894;SDS011;11614;52.494;6.976;2022-08-19T10:55:05;18.00;;;16.63;;
22894;SDS011;11614;52.494;6.976;2022-08-19T10:57:51;16.58;;;15.27;;
22894;SDS011;11614;52.494;6.976;2022-08-19T11:00:18;21.27;;;19.80;;
22894;SDS011;11614;52.494;6.976;2022-08-19T11:02:44;11.70;;;10.80;;
22894;SDS011;11614;52.494;6.976;2022-08-19T11:05:11;26.70;;;25.25;;
22894;SDS011;11614;52.494;6.976;2022-08-19T11:07:40;12.55;;;11.55;;
22894;SDS011;11614;52.494;6.976;2022-08-19T11:10:06;14.77;;;13.57;;
22894;SDS011;11614;52.494;6.976;2022-08-19T11:12:35;14.68;;;13.63;;
22894;SDS011;11614;52.494;6.976;2022-08-19T11:15:01;14.13;;;13.13;;
22894;SDS011;11614;52.494;6.976;2022-08-19T11:17:28;20.90;;;19.60;;
22894;SDS011;11614;52.494;6.976;2022-08-19T11:19:56;83.15;;;79.70;;
22894;SDS011;11614;52.494;6.976;2022-08-19T11:22:22;13.77;;;12.88;;
22894;SDS011;11614;52.494;6.976;2022-08-19T11:24:48;12.07;;;11.23;;
22894;SDS011;11614;52.494;6.976;2022-08-19T11:27:14;23.23;;;21.83;;
22894;SDS011;11614;52.494;6.976;2022-08-19T11:29:40;15.40;;;14.40;;
22894;SDS011;11614;52.494;6.976;2022-08-19T11:32:07;15.73;;;14.43;;
22894;SDS011;11614;52.494;6.976;2022-08-19T11:34:37;10.20;;;9.38;;
22894;SDS011;11614;52.494;6.976;2022-08-19T11:37:04;10.50;;;9.77;;
22894;SDS011;11614;52.494;6.976;2022-08-19T11:39:31;13.52;;;12.60;;
22894;SDS011;11614;52.494;6.976;2022-08-19T11:41:58;11.07;;;10.18;;
22894;SDS011;11614;52.494;6.976;2022-08-19T11:44:24;20.65;;;19.35;;
22894;SDS011;11614;52.494;6.976;2022-08-19T11:46:50;16.25;;;15.23;;
22894;SDS011;11614;52.494;6.976;2022-08-19T11:49:18;13.90;;;13.00;;
22894;SDS011;11614;52.494;6.976;2022-08-19T11:51:44;12.57;;;11.65;;
22894;SDS011;11614;52.494;6.976;2022-08-19T11:54:11;14.85;;;13.85;;
22894;SDS011;11614;52.494;6.976;2022-08-19T11:56:38;14.73;;;13.73;;
22894;SDS011;11614;52.494;6.976;2022-08-19T11:59:04;10.15;;;9.45;;
22894;SDS011;11614;52.494;6.976;2022-08-19T12:01:30;25.35;;;24.10;;
22894;SDS011;11614;52.494;6.976;2022-08-19T12:03:56;17.92;;;16.92;;
22894;SDS011;11614;52.494;6.976;2022-08-19T12:06:30;14.02;;;13.23;;
22894;SDS011;11614;52.494;6.976;2022-08-19T12:09:00;14.30;;;13.40;;
22894;SDS011;11614;52.494;6.976;2022-08-19T12:11:26;15.18;;;14.23;;
22894;SDS011;11614;52.494;6.976;2022-08-19T12:13:53;14.18;;;12.98;;
22894;SDS011;11614;52.494;6.976;2022-08-19T12:16:20;21.45;;;20.15;;
22894;SDS011;11614;52.494;6.976;2022-08-19T12:18:47;16.40;;;15.30;;
22894;SDS011;11614;52.494;6.976;2022-08-19T12:21:16;17.17;;;16.23;;
22894;SDS011;11614;52.494;6.976;2022-08-19T12:23:43;16.65;;;15.60;;
22894;SDS011;11614;52.494;6.976;2022-08-19T12:26:10;10.95;;;10.07;;
22894;SDS011;11614;52.494;6.976;2022-08-19T12:28:36;12.27;;;11.48;;
22894;SDS011;11614;52.494;6.976;2022-08-19T12:31:03;13.27;;;12.27;;
22894;SDS011;11614;52.494;6.976;2022-08-19T12:33:29;12.90;;;12.02;;
22894;SDS011;11614;52.494;6.976;2022-08-19T12:35:59;17.40;;;16.15;;
22894;SDS011;11614;52.494;6.976;2022-08-19T12:38:25;21.13;;;19.83;;
22894;SDS011;11614;52.494;6.976;2022-08-19T12:40:52;23.83;;;22.42;;
22894;SDS011;11614;52.494;6.976;2022-08-19T12:43:18;15.48;;;14.05;;
22894;SDS011;11614;52.494;6.976;2022-08-19T12:45:45;11.27;;;10.27;;
22894;SDS011;11614;52.494;6.976;2022-08-19T12:48:11;12.88;;;11.80;;
22894;SDS011;11614;52.494;6.976;2022-08-19T12:50:41;15.48;;;14.27;;
22894;SDS011;11614;52.494;6.976;2022-08-19T12:53:07;14.65;;;13.43;;
22894;SDS011;11614;52.494;6.976;2022-08-19T12:55:33;12.90;;;11.90;;
22894;SDS011;11614;52.494;6.976;2022-08-19T12:57:59;18.15;;;16.75;;
22894;SDS011;11614;52.494;6.976;2022-08-19T13:00:28;16.38;;;14.98;;
22894;SDS011;11614;52.494;6.976;2022-08-19T13:02:56;29.13;;;27.50;;
22894;SDS011;11614;52.494;6.976;2022-08-19T13:05:23;40.38;;;38.22;;
22894;SDS011;11614;52.494;6.976;2022-08-19T13:07:50;20.40;;;18.95;;
22894;SDS011;11614;52.494;6.976;2022-08-19T13:10:18;20.25;;;18.92;;
22894;SDS011;11614;52.494;6.976;2022-08-19T13:12:45;21.42;;;20.00;;
22894;SDS011;11614;52.494;6.976;2022-08-19T13:15:12;16.70;;;15.40;;
22894;SDS011;11614;52.494;6.976;2022-08-19T13:17:39;50.85;;;48.13;;
22894;SDS011;11614;52.494;6.976;2022-08-19T13:20:06;27.00;;;25.20;;
22894;SDS011;11614;52.494;6.976;2022-08-19T13:22:33;42.10;;;39.85;;
22894;SDS011;11614;52.494;6.976;2022-08-19T13:25:00;32.75;;;30.85;;
22894;SDS011;11614;52.494;6.976;2022-08-19T13:27:26;31.92;;;29.98;;
22894;SDS011;11614;52.494;6.976;2022-08-19T13:29:52;17.40;;;16.00;;
22894;SDS011;11614;52.494;6.976;2022-08-19T13:32:37;34.33;;;32.13;;
22894;SDS011;11614;52.494;6.976;2022-08-19T13:35:22;21.00;;;19.45;;
22894;SDS011;11614;52.494;6.976;2022-08-19T13:37:48;29.95;;;27.75;;
22894;SDS011;11614;52.494;6.976;2022-08-19T13:40:18;45.78;;;43.10;;
22894;SDS011;11614;52.494;6.976;2022-08-19T13:42:45;54.47;;;51.45;;
22894;SDS011;11614;52.494;6.976;2022-08-19T13:45:13;22.10;;;20.30;;
22894;SDS011;11614;52.494;6.976;2022-08-19T13:47:40;23.35;;;21.65;;
22894;SDS011;11614;52.494;6.976;2022-08-19T13:50:12;26.45;;;24.67;;
22894;SDS011;11614;52.494;6.976;2022-08-19T13:52:39;24.15;;;22.55;;
22894;SDS011;11614;52.494;6.976;2022-08-19T13:55:05;27.02;;;25.00;;
22894;SDS011;11614;52.494;6.976;2022-08-19T13:57:32;18.33;;;17.00;;
22894;SDS011;11614;52.494;6.976;2022-08-19T13:59:58;26.02;;;24.33;;
22894;SDS011;11614;52.494;6.976;2022-08-19T14:02:24;51.47;;;48.78;;
22894;SDS011;11614;52.494;6.976;2022-08-19T14:04:51;19.50;;;17.90;;
22894;SDS011;11614;52.494;6.976;2022-08-19T14:07:17;30.13;;;28.08;;
22894;SDS011;11614;52.494;6.976;2022-08-19T14:09:43;22.05;;;20.40;;
22894;SDS011;11614;52.494;6.976;2022-08-19T14:12:09;19.30;;;17.60;;
22894;SDS011;11614;52.494;6.976;2022-08-19T14:14:38;21.35;;;19.65;;
22894;SDS011;11614;52.494;6.976;2022-08-19T14:17:07;21.83;;;20.20;;
22894;SDS011;11614;52.494;6.976;2022-08-19T14:19:34;20.20;;;18.60;;
22894;SDS011;11614;52.494;6.976;2022-08-19T14:22:00;28.13;;;26.38;;
22894;SDS011;11614;52.494;6.976;2022-08-19T14:24:26;21.85;;;20.00;;
22894;SDS011;11614;52.494;6.976;2022-08-19T14:26:52;25.45;;;23.65;;
22894;SDS011;11614;52.494;6.976;2022-08-19T14:29:18;22.58;;;20.73;;
22894;SDS011;11614;52.494;6.976;2022-08-19T14:31:44;27.40;;;25.52;;
22894;SDS011;11614;52.494;6.976;2022-08-19T14:34:10;23.73;;;22.08;;
22894;SDS011;11614;52.494;6.976;2022-08-19T14:36:37;15.02;;;13.63;;